createdAt,value
2023-03-11T00:00:55.147Z,4.24
2023-03-11T00:03:24.941Z,3.76
2023-03-11T00:05:52.734Z,3.92
2023-03-11T00:08:22.884Z,3.62
2023-03-11T00:10:53.480Z,3.41
2023-03-11T00:13:20.031Z,3.71
2023-03-11T00:15:48.622Z,3.51
2023-03-11T00:18:15.649Z,3.45
2023-03-11T00:20:44.658Z,3.23
2023-03-11T00:23:12.421Z,3.03
2023-03-11T00:25:39.500Z,3.03
2023-03-11T00:28:13.076Z,3.00
2023-03-11T00:30:41.424Z,3.05
2023-03-11T00:33:08.922Z,3.78
2023-03-11T00:35:43.519Z,3.39
2023-03-11T00:38:15.015Z,3.53
2023-03-11T00:40:41.821Z,3.22
2023-03-11T00:43:08.618Z,3.52
2023-03-11T00:45:36.117Z,3.31
2023-03-11T00:48:03.251Z,3.00
2023-03-11T00:50:32.486Z,3.53
2023-03-11T00:52:59.895Z,3.26
2023-03-11T00:55:29.084Z,3.12
2023-03-11T00:58:01.490Z,3.12
2023-03-11T01:00:33.966Z,4.02
2023-03-11T01:03:02.360Z,3.81
2023-03-11T01:05:31.709Z,3.82
2023-03-11T01:07:59.118Z,3.53
2023-03-11T01:10:27.235Z,3.87
2023-03-11T01:12:53.997Z,4.02
2023-03-11T01:15:27.226Z,3.46
2023-03-11T01:17:53.710Z,3.33
2023-03-11T01:20:22.545Z,2.92
2023-03-11T01:22:49.321Z,3.31
2023-03-11T01:25:18.605Z,2.79
2023-03-11T01:27:45.717Z,2.57
2023-03-11T01:30:18.155Z,3.15
2023-03-11T01:32:46.125Z,3.02
2023-03-11T01:35:14.723Z,3.06
2023-03-11T01:37:41.319Z,2.89
2023-03-11T01:40:11.794Z,3.07
2023-03-11T01:42:38.325Z,3.32
2023-03-11T01:45:30.234Z,3.26
2023-03-11T01:47:56.998Z,3.19
2023-03-11T01:50:25.828Z,2.76
2023-03-11T01:52:53.344Z,3.02
2023-03-11T01:55:19.977Z,3.66
2023-03-11T01:57:47.242Z,2.92
2023-03-11T02:00:15.864Z,4.07
2023-03-11T02:02:46.872Z,3.29
2023-03-11T02:05:14.013Z,3.47
2023-03-11T02:07:40.860Z,3.70
2023-03-11T02:10:12.161Z,3.09
2023-03-11T02:12:38.697Z,3.36
2023-03-11T02:15:06.970Z,3.12
2023-03-11T02:17:35.153Z,3.58
2023-03-11T02:20:02.021Z,3.55
2023-03-11T02:22:33.317Z,3.77
2023-03-11T02:25:10.396Z,3.57
2023-03-11T02:27:41.264Z,2.84
2023-03-11T02:30:12.104Z,3.15
2023-03-11T02:32:39.928Z,2.88
2023-03-11T02:35:07.774Z,3.40
2023-03-11T02:37:34.399Z,3.12
2023-03-11T02:40:31.593Z,2.91
2023-03-11T02:43:00.192Z,2.36
2023-03-11T02:45:27.510Z,2.98
2023-03-11T02:47:55.812Z,2.29
2023-03-11T02:50:23.145Z,2.26
2023-03-11T02:52:50.296Z,2.13
2023-03-11T02:55:18.054Z,2.35
2023-03-11T02:57:45.468Z,2.89
2023-03-11T03:00:15.153Z,2.33
2023-03-11T03:02:46.668Z,3.27
2023-03-11T03:05:13.749Z,2.45
2023-03-11T03:07:40.902Z,3.43
2023-03-11T03:10:07.916Z,2.37
2023-03-11T03:12:35.587Z,2.82
2023-03-11T03:15:02.415Z,2.59
2023-03-11T03:17:29.080Z,2.73
2023-03-11T03:19:55.900Z,2.57
2023-03-11T03:22:25.116Z,2.26
2023-03-11T03:24:52.887Z,1.99
2023-03-11T03:27:20.197Z,2.77
2023-03-11T03:29:46.792Z,2.44
2023-03-11T03:32:13.381Z,2.36
2023-03-11T03:34:39.918Z,1.78
2023-03-11T03:37:06.653Z,2.55
2023-03-11T03:39:33.828Z,2.65
2023-03-11T03:42:00.846Z,2.44
2023-03-11T03:44:30.666Z,2.49
2023-03-11T03:46:58.372Z,2.16
2023-03-11T03:49:25.109Z,2.44
2023-03-11T03:51:51.655Z,1.62
2023-03-11T03:54:27.395Z,2.25
2023-03-11T03:56:54.536Z,2.39
2023-03-11T03:59:21.932Z,2.21
2023-03-11T04:01:52.926Z,1.73
2023-03-11T04:04:20.109Z,1.92
2023-03-11T04:06:47.108Z,2.13
2023-03-11T04:09:13.861Z,1.94
2023-03-11T04:11:40.556Z,2.36
2023-03-11T04:14:08.003Z,2.51
2023-03-11T04:16:40.743Z,2.41
2023-03-11T04:19:11.973Z,1.92
2023-03-11T04:21:38.819Z,2.35
2023-03-11T04:24:05.646Z,3.04
2023-03-11T04:26:35.430Z,2.50
2023-03-11T04:29:03.123Z,2.75
2023-03-11T04:31:33.809Z,2.38
2023-03-11T04:34:04.092Z,1.82
2023-03-11T04:36:30.723Z,2.87
2023-03-11T04:38:57.821Z,2.18
2023-03-11T04:41:25.728Z,2.66
2023-03-11T04:43:52.263Z,1.93
2023-03-11T04:46:19.479Z,1.86
2023-03-11T04:48:46.064Z,2.29
2023-03-11T04:51:12.849Z,2.45
2023-03-11T04:53:39.861Z,1.86
2023-03-11T04:56:06.778Z,1.59
2023-03-11T04:58:35.442Z,2.46
2023-03-11T05:01:01.996Z,2.15
2023-03-11T05:03:28.598Z,1.70
2023-03-11T05:05:56.702Z,1.97
2023-03-11T05:08:24.084Z,2.12
2023-03-11T05:10:51.723Z,2.07
2023-03-11T05:13:19.414Z,2.08
2023-03-11T05:15:47.115Z,2.06
2023-03-11T05:18:14.524Z,1.65
2023-03-11T05:20:41.481Z,1.25
2023-03-11T05:23:09.778Z,1.85
2023-03-11T05:25:37.177Z,1.65
2023-03-11T05:28:04.554Z,1.51
2023-03-11T05:30:33.141Z,1.58
2023-03-11T05:32:59.826Z,1.79
2023-03-11T05:35:26.841Z,1.73
2023-03-11T05:37:54.841Z,1.82
2023-03-11T05:40:23.585Z,1.88
2023-03-11T05:42:51.737Z,1.56
2023-03-11T05:45:18.323Z,1.80
2023-03-11T05:47:47.397Z,1.85
2023-03-11T05:50:15.610Z,1.76
2023-03-11T05:52:44.323Z,1.33
2023-03-11T05:55:12.351Z,1.37
2023-03-11T05:57:40.787Z,1.66
2023-03-11T06:00:12.088Z,1.44
2023-03-11T06:02:45.047Z,1.54
2023-03-11T06:05:14.970Z,1.73
2023-03-11T06:07:43.436Z,1.79
2023-03-11T06:10:10.873Z,1.80
2023-03-11T06:12:38.613Z,1.66
2023-03-11T06:15:16.782Z,1.97
2023-03-11T06:17:43.354Z,2.00
2023-03-11T06:20:10.484Z,1.65
2023-03-11T06:22:39.950Z,1.84
2023-03-11T06:25:08.024Z,1.70
2023-03-11T06:27:35.059Z,1.63
2023-03-11T06:30:02.198Z,2.17
2023-03-11T06:32:31.806Z,2.15
2023-03-11T06:34:58.373Z,2.47
2023-03-11T06:37:25.592Z,2.66
2023-03-11T06:39:53.461Z,2.97
2023-03-11T06:42:23.955Z,2.83
2023-03-11T06:44:52.017Z,2.45
2023-03-11T06:47:18.724Z,2.62
2023-03-11T06:49:45.270Z,2.67
2023-03-11T06:52:11.788Z,2.04
2023-03-11T06:54:38.604Z,2.37
2023-03-11T06:57:07.852Z,2.12
2023-03-11T06:59:34.605Z,2.64
2023-03-11T07:02:03.810Z,2.66
2023-03-11T07:04:30.944Z,1.95
2023-03-11T07:06:57.481Z,2.48
2023-03-11T07:09:25.270Z,2.06
2023-03-11T07:11:52.422Z,2.43
2023-03-11T07:14:25.465Z,2.00
2023-03-11T07:16:55.182Z,2.20
2023-03-11T07:19:38.527Z,2.56
2023-03-11T07:22:05.068Z,1.85
2023-03-11T07:24:32.393Z,2.02
2023-03-11T07:26:58.850Z,2.82
2023-03-11T07:29:25.310Z,2.53
2023-03-11T07:31:51.866Z,2.80
2023-03-11T07:34:18.949Z,1.89
2023-03-11T07:36:45.520Z,2.55
2023-03-11T07:39:17.595Z,2.76
2023-03-11T07:41:45.379Z,3.45
2023-03-11T07:44:13.225Z,2.91
2023-03-11T07:46:40.287Z,2.89
2023-03-11T07:49:07.415Z,3.77
2023-03-11T07:51:35.712Z,3.20
2023-03-11T07:54:03.195Z,2.89
2023-03-11T07:56:32.497Z,2.57
2023-03-11T07:59:00.557Z,3.04
2023-03-11T08:01:36.658Z,3.15
2023-03-11T08:04:07.539Z,3.38
2023-03-11T08:06:35.668Z,3.49
2023-03-11T08:09:07.092Z,3.02
2023-03-11T08:11:34.272Z,3.10
2023-03-11T08:14:00.975Z,4.53
2023-03-11T08:16:27.958Z,3.63
2023-03-11T08:18:54.560Z,4.49
2023-03-11T08:21:26.678Z,5.17
2023-03-11T08:23:57.767Z,4.89
2023-03-11T08:26:25.037Z,4.86
2023-03-11T08:28:51.584Z,4.44
2023-03-11T08:31:24.143Z,3.30
2023-03-11T08:33:52.166Z,2.91
2023-03-11T08:36:19.606Z,3.54
2023-03-11T08:38:46.458Z,3.41
2023-03-11T08:41:13.236Z,2.87
2023-03-11T08:43:40.027Z,3.41
2023-03-11T08:46:07.146Z,3.11
2023-03-11T08:48:34.102Z,3.66
2023-03-11T08:51:00.687Z,4.59
2023-03-11T08:53:27.151Z,4.75
2023-03-11T08:55:53.666Z,4.58
2023-03-11T08:58:20.519Z,4.83
2023-03-11T09:00:47.264Z,4.83
2023-03-11T09:03:14.072Z,4.82
2023-03-11T09:05:40.672Z,5.13
2023-03-11T09:08:07.303Z,5.10
2023-03-11T09:10:34.006Z,5.23
2023-03-11T09:13:00.538Z,5.67
2023-03-11T09:15:27.149Z,5.48
2023-03-11T09:17:54.305Z,4.88
2023-03-11T09:20:20.989Z,5.20
2023-03-11T09:22:47.999Z,5.86
2023-03-11T09:25:15.397Z,5.29
2023-03-11T09:27:42.062Z,5.75
2023-03-11T09:30:10.025Z,6.02
2023-03-11T09:32:36.651Z,6.40
2023-03-11T09:35:03.760Z,5.95
2023-03-11T09:37:30.343Z,6.36
2023-03-11T09:39:57.280Z,4.80
2023-03-11T09:42:32.746Z,4.25
2023-03-11T09:45:20.337Z,4.69
2023-03-11T09:47:56.463Z,6.14
2023-03-11T09:50:38.244Z,6.27
2023-03-11T09:53:26.079Z,6.13
2023-03-11T09:55:55.606Z,5.10
2023-03-11T09:58:25.062Z,5.53
2023-03-11T10:00:54.453Z,7.09
2023-03-11T10:03:32.667Z,6.43
2023-03-11T10:06:22.292Z,6.01
2023-03-11T10:09:14.548Z,5.49
2023-03-11T10:11:45.361Z,5.74
2023-03-11T10:14:34.111Z,6.45
2023-03-11T10:17:19.597Z,6.32
2023-03-11T10:20:04.974Z,6.64
2023-03-11T10:22:54.442Z,7.01
2023-03-11T10:25:28.499Z,6.23
2023-03-11T10:28:08.902Z,6.62
2023-03-11T10:30:43.842Z,6.49
2023-03-11T10:33:22.790Z,5.77
2023-03-11T10:35:55.693Z,7.48
2023-03-11T10:38:25.679Z,6.00
2023-03-11T10:40:55.349Z,7.10
2023-03-11T10:43:27.725Z,6.69
2023-03-11T10:45:54.485Z,6.52
2023-03-11T10:48:22.267Z,7.09
2023-03-11T10:51:01.677Z,7.05
2023-03-11T10:53:28.756Z,7.61
2023-03-11T10:55:57.851Z,9.13
2023-03-11T10:58:27.152Z,9.83
2023-03-11T11:01:17.182Z,10.42
2023-03-11T11:03:52.344Z,9.97
2023-03-11T11:06:30.484Z,9.45
2023-03-11T11:09:19.705Z,8.85
2023-03-11T11:12:02.507Z,6.86
2023-03-11T11:14:47.501Z,6.63
2023-03-11T11:17:22.175Z,6.24
2023-03-11T11:19:49.485Z,5.52
2023-03-11T11:22:18.339Z,6.02
2023-03-11T11:24:46.697Z,6.66
2023-03-11T11:27:20.543Z,5.98
2023-03-11T11:30:23.252Z,5.98
2023-03-11T11:32:53.672Z,7.43
2023-03-11T11:35:22.637Z,6.74
2023-03-11T11:38:00.353Z,6.90
2023-03-11T11:40:32.111Z,8.37
2023-03-11T11:43:03.672Z,8.57
2023-03-11T11:45:58.767Z,8.04
2023-03-11T11:48:30.570Z,8.16
2023-03-11T11:51:01.670Z,6.99
2023-03-11T11:53:47.039Z,6.52
2023-03-11T11:56:13.629Z,7.48
2023-03-11T11:58:43.679Z,7.23
2023-03-11T12:01:22.032Z,7.45
2023-03-11T12:04:04.255Z,7.93
2023-03-11T12:06:42.904Z,7.80
2023-03-11T12:09:27.812Z,8.87
2023-03-11T12:12:08.574Z,9.16
2023-03-11T12:14:50.410Z,9.27
2023-03-11T12:17:19.200Z,9.20
2023-03-11T12:20:04.131Z,8.32
2023-03-11T12:22:55.991Z,8.55
2023-03-11T12:25:49.576Z,7.22
2023-03-11T12:28:27.348Z,8.55
2023-03-11T12:30:56.786Z,7.66
2023-03-11T12:33:37.040Z,7.70
2023-03-11T12:36:05.374Z,7.22
2023-03-11T12:38:34.292Z,8.09
2023-03-11T12:41:14.664Z,7.95
2023-03-11T12:43:41.107Z,8.12
2023-03-11T12:46:13.340Z,8.71
2023-03-11T12:48:50.900Z,8.65
2023-03-11T12:51:26.480Z,7.87
2023-03-11T12:53:56.939Z,8.05
2023-03-11T12:56:35.373Z,8.29
2023-03-11T12:59:24.476Z,7.06
2023-03-11T13:02:29.597Z,7.97
2023-03-11T13:05:22.907Z,7.93
2023-03-11T13:07:51.789Z,8.19
2023-03-11T13:10:20.468Z,7.96
2023-03-11T13:12:52.086Z,8.55
2023-03-11T13:15:18.454Z,8.99
2023-03-11T13:17:59.352Z,8.93
2023-03-11T13:20:41.465Z,8.26
2023-03-11T13:23:13.210Z,7.70
2023-03-11T13:25:39.809Z,8.04
2023-03-11T13:28:35.344Z,8.30
2023-03-11T13:31:10.787Z,8.14
2023-03-11T13:33:46.283Z,8.75
2023-03-11T13:36:29.905Z,8.78
2023-03-11T13:39:33.607Z,7.73
2023-03-11T13:42:00.248Z,7.45
2023-03-11T13:44:35.185Z,8.68
2023-03-11T13:47:08.409Z,7.78
2023-03-11T13:49:51.872Z,7.81
2023-03-11T13:52:33.572Z,7.43
2023-03-11T13:55:02.993Z,7.25
2023-03-11T13:57:31.787Z,8.07
2023-03-11T14:00:16.605Z,6.93
2023-03-11T14:02:47.329Z,7.74
2023-03-11T14:05:28.166Z,8.20
2023-03-11T14:07:54.800Z,7.90
2023-03-11T14:10:26.578Z,8.00
2023-03-11T14:13:05.590Z,8.18
2023-03-11T14:15:40.762Z,8.39
2023-03-11T14:18:49.521Z,8.16
2023-03-11T14:21:18.648Z,8.63
2023-03-11T14:23:47.303Z,8.15
2023-03-11T14:26:19.232Z,8.29
2023-03-11T14:28:49.491Z,7.95
2023-03-11T14:31:38.164Z,7.86
2023-03-11T14:34:10.720Z,7.80
2023-03-11T14:36:44.662Z,7.79
2023-03-11T14:39:23.944Z,7.40
2023-03-11T14:41:51.731Z,8.16
2023-03-11T14:44:21.407Z,8.29
2023-03-11T14:46:49.728Z,7.98
2023-03-11T14:49:19.223Z,8.16
2023-03-11T14:51:46.537Z,8.41
2023-03-11T14:54:18.106Z,8.55
2023-03-11T14:56:51.138Z,8.47
2023-03-11T14:59:26.634Z,8.13
2023-03-11T15:01:55.280Z,7.86
2023-03-11T15:04:32.813Z,7.20
2023-03-11T15:07:00.139Z,7.41
2023-03-11T15:09:27.830Z,7.39
2023-03-11T15:11:59.666Z,7.43
2023-03-11T15:14:35.348Z,8.00
2023-03-11T15:17:37.800Z,7.57
2023-03-11T15:20:31.175Z,7.28
2023-03-11T15:23:02.825Z,7.94
2023-03-11T15:25:33.278Z,8.05
2023-03-11T15:28:14.017Z,8.10
2023-03-11T15:30:40.738Z,7.84
2023-03-11T15:33:21.258Z,7.87
2023-03-11T15:35:48.920Z,8.45
2023-03-11T15:38:25.308Z,7.98
2023-03-11T15:40:53.876Z,7.97
2023-03-11T15:43:31.310Z,7.51
2023-03-11T15:45:59.237Z,7.74
2023-03-11T15:48:27.861Z,6.95
2023-03-11T15:50:57.132Z,7.83
2023-03-11T15:53:25.672Z,7.51
2023-03-11T15:55:53.689Z,7.33
2023-03-11T15:58:21.374Z,7.36
2023-03-11T16:00:50.992Z,7.55
2023-03-11T16:03:17.961Z,7.14
2023-03-11T16:05:44.679Z,7.00
2023-03-11T16:08:14.188Z,7.26
2023-03-11T16:10:40.956Z,7.44
2023-03-11T16:13:11.929Z,6.99
2023-03-11T16:15:38.755Z,7.35
2023-03-11T16:18:07.503Z,7.65
2023-03-11T16:20:43.216Z,7.63
2023-03-11T16:23:25.678Z,7.02
2023-03-11T16:25:56.260Z,7.24
2023-03-11T16:28:22.819Z,7.17
2023-03-11T16:30:50.390Z,7.40
2023-03-11T16:33:16.954Z,7.47
2023-03-11T16:35:43.587Z,7.77
2023-03-11T16:38:10.228Z,6.75
2023-03-11T16:40:37.251Z,7.70
2023-03-11T16:43:09.038Z,7.66
2023-03-11T16:45:36.235Z,7.52
2023-03-11T16:48:03.343Z,7.43
2023-03-11T16:50:29.944Z,6.88
2023-03-11T16:52:57.257Z,7.02
2023-03-11T16:55:25.309Z,7.24
2023-03-11T16:57:51.794Z,7.06
2023-03-11T17:00:18.662Z,7.24
2023-03-11T17:02:46.871Z,7.54
2023-03-11T17:05:13.773Z,7.51
2023-03-11T17:07:40.561Z,7.52
2023-03-11T17:10:08.822Z,6.75
2023-03-11T17:12:36.028Z,7.18
2023-03-11T17:15:03.259Z,7.22
2023-03-11T17:17:29.942Z,7.33
2023-03-11T17:19:56.444Z,6.96
2023-03-11T17:22:22.992Z,6.81
2023-03-11T17:24:50.074Z,6.84
2023-03-11T17:27:16.594Z,6.85
2023-03-11T17:29:43.172Z,6.91
2023-03-11T17:32:09.784Z,6.92
2023-03-11T17:34:36.413Z,6.40
2023-03-11T17:37:03.054Z,6.38
2023-03-11T17:39:29.671Z,6.73
2023-03-11T17:41:56.306Z,6.79
2023-03-11T17:44:22.958Z,6.36
2023-03-11T17:46:49.843Z,6.57
2023-03-11T17:49:16.523Z,6.58
2023-03-11T17:51:43.188Z,6.46
2023-03-11T17:54:09.762Z,6.21
2023-03-11T17:56:36.292Z,6.41
2023-03-11T17:59:02.825Z,6.34
2023-03-11T18:01:30.232Z,6.06
2023-03-11T18:03:57.076Z,6.25
2023-03-11T18:06:24.173Z,6.18
2023-03-11T18:08:51.515Z,6.02
2023-03-11T18:11:21.416Z,6.06
2023-03-11T18:13:48.303Z,6.08
2023-03-11T18:16:26.433Z,5.97
2023-03-11T18:18:54.364Z,6.10
2023-03-11T18:21:23.430Z,5.94
2023-03-11T18:23:52.829Z,5.78
2023-03-11T18:26:19.617Z,5.78
2023-03-11T18:28:46.235Z,5.66
2023-03-11T18:31:15.558Z,5.60
2023-03-11T18:33:44.884Z,5.72
2023-03-11T18:36:16.983Z,5.89
2023-03-11T18:38:43.924Z,5.89
2023-03-11T18:41:10.644Z,6.00
2023-03-11T18:43:37.465Z,6.11
2023-03-11T18:46:11.971Z,6.07
2023-03-11T18:48:38.629Z,6.09
2023-03-11T18:51:07.035Z,6.01
2023-03-11T18:53:33.605Z,5.86
2023-03-11T18:56:05.928Z,5.94
2023-03-11T18:58:33.047Z,5.95
2023-03-11T19:01:06.185Z,5.75
2023-03-11T19:03:32.948Z,5.51
2023-03-11T19:05:59.764Z,5.46
2023-03-11T19:08:26.904Z,5.44
2023-03-11T19:10:53.852Z,5.58
2023-03-11T19:13:20.614Z,5.53
2023-03-11T19:15:47.417Z,5.41
2023-03-11T19:18:14.294Z,5.29
2023-03-11T19:20:40.939Z,5.33
2023-03-11T19:23:07.875Z,5.30
2023-03-11T19:25:34.809Z,5.47
2023-03-11T19:28:01.332Z,5.50
2023-03-11T19:30:27.899Z,5.44
2023-03-11T19:32:54.446Z,5.29
2023-03-11T19:35:22.893Z,5.14
2023-03-11T19:37:50.186Z,5.01
2023-03-11T19:40:17.395Z,4.75
2023-03-11T19:42:44.019Z,4.83
2023-03-11T19:45:11.194Z,4.81
2023-03-11T19:47:38.390Z,4.69
2023-03-11T19:50:05.817Z,4.72
2023-03-11T19:52:34.671Z,4.68
2023-03-11T19:55:01.464Z,4.69
2023-03-11T19:57:27.950Z,4.69
2023-03-11T19:59:55.392Z,4.53
2023-03-11T20:02:22.029Z,4.43
2023-03-11T20:04:48.683Z,4.47
2023-03-11T20:07:15.525Z,4.32
2023-03-11T20:09:42.204Z,4.48
2023-03-11T20:12:08.750Z,4.56
2023-03-11T20:14:35.259Z,4.59
2023-03-11T20:17:01.838Z,4.40
2023-03-11T20:19:28.553Z,4.37
2023-03-11T20:21:55.152Z,4.27
2023-03-11T20:24:21.682Z,4.22
2023-03-11T20:26:51.138Z,4.32
2023-03-11T20:29:18.044Z,4.15
2023-03-11T20:31:44.717Z,4.30
2023-03-11T20:34:12.025Z,4.39
2023-03-11T20:36:39.124Z,4.30
2023-03-11T20:39:09.472Z,4.23
2023-03-11T20:41:39.485Z,4.14
2023-03-11T20:44:07.600Z,3.95
2023-03-11T20:46:35.049Z,4.14
2023-03-11T20:49:01.757Z,4.27
2023-03-11T20:51:28.494Z,4.17
2023-03-11T20:53:55.059Z,4.33
2023-03-11T20:56:24.413Z,4.00
2023-03-11T20:58:51.787Z,4.07
2023-03-11T21:01:27.679Z,4.01
2023-03-11T21:03:59.338Z,4.03
2023-03-11T21:06:28.520Z,3.94
2023-03-11T21:08:56.529Z,3.93
2023-03-11T21:11:23.781Z,3.90
2023-03-11T21:13:50.441Z,3.85
2023-03-11T21:16:17.676Z,3.82
2023-03-11T21:18:45.646Z,3.79
2023-03-11T21:21:15.624Z,3.76
2023-03-11T21:23:43.649Z,3.68
2023-03-11T21:26:12.200Z,3.65
2023-03-11T21:28:39.957Z,3.71
2023-03-11T21:31:11.255Z,3.72
2023-03-11T21:33:39.235Z,3.70
2023-03-11T21:36:06.895Z,3.79
2023-03-11T21:38:33.994Z,3.63
2023-03-11T21:41:18.202Z,3.89
2023-03-11T21:43:45.545Z,3.93
2023-03-11T21:46:18.284Z,3.78
2023-03-11T21:48:46.346Z,3.77
2023-03-11T21:51:13.867Z,3.70
2023-03-11T21:53:40.458Z,3.64
2023-03-11T21:56:07.530Z,3.52
2023-03-11T21:58:34.668Z,3.63
2023-03-11T22:01:01.764Z,3.64
2023-03-11T22:03:28.513Z,3.56
2023-03-11T22:05:57.371Z,3.56
2023-03-11T22:08:24.342Z,3.45
2023-03-11T22:10:51.037Z,3.52
2023-03-11T22:13:17.557Z,3.61
2023-03-11T22:15:44.149Z,3.30
2023-03-11T22:18:11.758Z,2.94
2023-03-11T22:20:40.407Z,3.08
2023-03-11T22:23:07.584Z,2.75
2023-03-11T22:25:34.211Z,2.54
2023-03-11T22:28:00.940Z,2.84
2023-03-11T22:30:27.645Z,3.24
2023-03-11T22:32:54.145Z,3.22
2023-03-11T22:35:20.757Z,3.31
2023-03-11T22:37:47.243Z,3.25
2023-03-11T22:40:13.841Z,3.26
2023-03-11T22:42:40.533Z,3.37
2023-03-11T22:45:07.580Z,3.35
2023-03-11T22:47:34.095Z,3.29
2023-03-11T22:50:00.649Z,3.30
2023-03-11T22:52:27.172Z,3.21
2023-03-11T22:54:53.803Z,3.27
2023-03-11T22:57:20.314Z,3.24
2023-03-11T22:59:46.831Z,3.20
2023-03-11T23:02:13.378Z,3.23
2023-03-11T23:04:40.080Z,3.16
2023-03-11T23:07:06.733Z,3.14
2023-03-11T23:09:34.807Z,3.10
2023-03-11T23:12:03.691Z,3.06
2023-03-11T23:14:43.675Z,3.12
2023-03-11T23:17:11.433Z,2.95
2023-03-11T23:19:38.069Z,2.98
2023-03-11T23:22:04.843Z,2.91
2023-03-11T23:24:31.639Z,2.91
2023-03-11T23:26:58.537Z,2.95
2023-03-11T23:29:25.363Z,2.98
2023-03-11T23:31:51.879Z,3.10
2023-03-11T23:34:18.431Z,3.12
2023-03-11T23:36:44.950Z,3.04
2023-03-11T23:39:11.452Z,2.94
2023-03-11T23:41:38.061Z,2.97
2023-03-11T23:44:04.704Z,2.96
2023-03-11T23:46:31.656Z,3.02
2023-03-11T23:48:58.543Z,2.88
2023-03-11T23:51:25.302Z,2.91
2023-03-11T23:53:51.871Z,2.84
2023-03-11T23:56:19.254Z,2.85
2023-03-11T23:58:46.795Z,2.80
